createdAt,value
2018-07-23T00:00:06.253Z,21.36
2018-07-23T00:01:20.937Z,21.36
2018-07-23T00:02:35.905Z,21.34
2018-07-23T00:03:50.349Z,21.33
2018-07-23T00:05:04.528Z,21.31
2018-07-23T00:06:18.429Z,21.31
2018-07-23T00:07:32.966Z,21.31
2018-07-23T00:08:47.148Z,21.3
2018-07-23T00:10:01.316Z,21.29
2018-07-23T00:11:15.758Z,21.29
2018-07-23T00:12:30.010Z,21.29
2018-07-23T00:13:44.170Z,21.27
2018-07-23T00:14:58.319Z,21.24
2018-07-23T00:16:12.811Z,21.23
2018-07-23T00:17:27.136Z,21.19
2018-07-23T00:18:47.811Z,21.17
2018-07-23T00:20:02.493Z,21.15
2018-07-23T00:21:16.953Z,21.12
2018-07-23T00:22:31.519Z,21.1
2018-07-23T00:23:45.975Z,21.09
2018-07-23T00:25:00.400Z,21.08
2018-07-23T00:26:14.829Z,21.06
2018-07-23T00:27:29.482Z,21.03
2018-07-23T00:28:43.429Z,21.01
2018-07-23T00:29:58.144Z,20.99
2018-07-23T00:31:12.564Z,20.97
2018-07-23T00:32:26.227Z,20.95
2018-07-23T00:33:40.431Z,20.93
2018-07-23T00:34:55.309Z,20.92
2018-07-23T00:36:09.769Z,20.92
2018-07-23T00:37:23.719Z,20.9
2018-07-23T00:38:37.806Z,20.9
2018-07-23T00:39:51.992Z,20.87
2018-07-23T00:41:05.646Z,20.86
2018-07-23T00:42:19.816Z,20.85
2018-07-23T00:43:34.163Z,20.84
2018-07-23T00:44:48.325Z,20.82
2018-07-23T00:46:02.501Z,20.83
2018-07-23T00:47:17.186Z,20.84
2018-07-23T00:48:31.889Z,20.83
2018-07-23T00:50:18.379Z,20.83
2018-07-23T00:51:33.033Z,20.81
2018-07-23T00:52:47.708Z,20.81
2018-07-23T00:54:01.762Z,20.81
2018-07-23T00:55:16.438Z,20.8
2018-07-23T00:56:30.873Z,20.81
2018-07-23T00:57:45.260Z,20.8
2018-07-23T00:58:59.414Z,20.78
2018-07-23T01:00:13.886Z,20.78
2018-07-23T01:01:28.323Z,20.78
2018-07-23T01:02:43.219Z,20.77
2018-07-23T01:03:57.631Z,20.79
2018-07-23T01:05:12.053Z,20.78
2018-07-23T01:06:26.216Z,20.77
2018-07-23T01:07:40.644Z,20.76
2018-07-23T01:08:54.852Z,20.73
2018-07-23T01:10:09.670Z,20.71
2018-07-23T01:11:24.617Z,20.68
2018-07-23T01:12:39.272Z,20.66
2018-07-23T01:13:53.685Z,20.64
2018-07-23T01:15:07.850Z,20.64
2018-07-23T01:16:22.527Z,20.63
2018-07-23T01:17:36.413Z,20.62
2018-07-23T01:18:51.079Z,20.61
2018-07-23T01:20:05.806Z,20.59
2018-07-23T01:21:20.242Z,20.59
2018-07-23T01:22:34.916Z,20.57
2018-07-23T01:23:48.845Z,20.57
2018-07-23T01:25:03.412Z,20.57
2018-07-23T01:26:17.344Z,20.57
2018-07-23T01:27:31.267Z,20.55
2018-07-23T01:28:45.709Z,20.55
2018-07-23T01:29:59.884Z,20.55
2018-07-23T01:31:15.061Z,20.57
2018-07-23T01:32:29.068Z,20.59
2018-07-23T01:33:43.696Z,20.6
2018-07-23T01:34:58.627Z,20.63
2018-07-23T01:36:13.096Z,20.63
2018-07-23T01:37:26.999Z,20.63
2018-07-23T01:38:41.162Z,20.62
2018-07-23T01:39:55.542Z,20.58
2018-07-23T01:41:10.505Z,20.57
2018-07-23T01:42:25.356Z,20.56
2018-07-23T01:43:39.748Z,20.54
2018-07-23T01:44:54.658Z,20.53
2018-07-23T01:46:09.133Z,20.51
2018-07-23T01:47:24.013Z,20.49
2018-07-23T01:48:38.178Z,20.48
2018-07-23T01:49:52.566Z,20.48
2018-07-23T01:51:07.137Z,20.46
2018-07-23T01:52:21.563Z,20.42
2018-07-23T01:53:36.008Z,20.39
2018-07-23T01:54:50.427Z,20.36
2018-07-23T01:56:04.579Z,20.35
2018-07-23T01:57:19.012Z,20.32
2018-07-23T01:58:33.675Z,20.29
2018-07-23T01:59:48.131Z,20.28
2018-07-23T02:01:02.540Z,20.27
2018-07-23T02:02:17.208Z,20.26
2018-07-23T02:03:31.140Z,20.25
2018-07-23T02:04:45.324Z,20.23
2018-07-23T02:05:59.241Z,20.22
2018-07-23T02:07:13.922Z,20.19
2018-07-23T02:08:28.783Z,20.19
2018-07-23T02:09:43.489Z,20.17
2018-07-23T02:10:57.439Z,20.16
2018-07-23T02:12:11.631Z,20.15
2018-07-23T02:13:26.038Z,20.14
2018-07-23T02:14:40.974Z,20.14
2018-07-23T02:15:55.852Z,20.12
2018-07-23T02:17:10.722Z,20.09
2018-07-23T02:18:25.164Z,20.08
2018-07-23T02:19:39.576Z,20.07
2018-07-23T02:20:54.039Z,20.05
2018-07-23T02:22:08.662Z,20.05
2018-07-23T02:23:23.336Z,20.04
2018-07-23T02:24:38.180Z,20.03
2018-07-23T02:25:53.075Z,20.04
2018-07-23T02:27:07.323Z,20.03
2018-07-23T02:28:21.492Z,20.02
2018-07-23T02:29:36.416Z,20.02
2018-07-23T02:30:50.867Z,20.01
2018-07-23T02:32:05.288Z,20
2018-07-23T02:33:19.508Z,20
2018-07-23T02:34:34.476Z,20
2018-07-23T02:35:49.094Z,20.01
2018-07-23T02:37:03.285Z,20.01
2018-07-23T02:38:17.955Z,20.01
2018-07-23T02:39:31.888Z,20.01
2018-07-23T02:40:46.862Z,19.99
2018-07-23T02:42:01.778Z,20
2018-07-23T02:43:16.509Z,19.97
2018-07-23T02:44:31.470Z,19.99
2018-07-23T02:45:46.162Z,19.97
2018-07-23T02:47:00.841Z,19.96
2018-07-23T02:48:15.684Z,19.95
2018-07-23T02:49:29.870Z,19.93
2018-07-23T02:50:44.518Z,19.91
2018-07-23T02:51:58.670Z,19.89
2018-07-23T02:53:13.320Z,19.88
2018-07-23T02:54:27.998Z,19.89
2018-07-23T02:55:42.148Z,19.91
2018-07-23T02:56:57.051Z,19.91
2018-07-23T02:58:11.594Z,19.91
2018-07-23T02:59:25.771Z,19.91
2018-07-23T03:00:40.022Z,19.91
2018-07-23T03:01:54.962Z,19.9
2018-07-23T03:03:09.418Z,19.89
2018-07-23T03:04:23.630Z,19.87
2018-07-23T03:05:38.081Z,19.89
2018-07-23T03:06:52.489Z,19.88
2018-07-23T03:08:06.937Z,19.88
2018-07-23T03:09:20.841Z,19.89
2018-07-23T03:10:35.042Z,19.88
2018-07-23T03:11:49.440Z,19.88
2018-07-23T03:13:04.117Z,19.9
2018-07-23T03:14:18.729Z,19.89
2018-07-23T03:15:32.669Z,19.89
2018-07-23T03:16:46.828Z,19.88
2018-07-23T03:18:01.223Z,19.88
2018-07-23T03:19:16.575Z,19.87
2018-07-23T03:20:31.513Z,19.85
2018-07-23T03:21:45.743Z,19.85
2018-07-23T03:23:00.579Z,19.83
2018-07-23T03:24:15.245Z,19.84
2018-07-23T03:25:29.747Z,19.85
2018-07-23T03:26:43.713Z,19.85
2018-07-23T03:27:57.908Z,19.84
2018-07-23T03:29:12.948Z,19.85
2018-07-23T03:30:26.615Z,19.87
2018-07-23T03:31:41.583Z,19.87
2018-07-23T03:32:55.475Z,19.88
2018-07-23T03:34:09.674Z,19.87
2018-07-23T03:35:24.529Z,19.89
2018-07-23T03:36:38.982Z,19.88
2018-07-23T03:37:53.405Z,19.89
2018-07-23T03:39:07.625Z,19.89
2018-07-23T03:40:22.061Z,19.88
2018-07-23T03:41:36.980Z,19.88
2018-07-23T03:42:51.652Z,19.88
2018-07-23T03:44:06.340Z,19.88
2018-07-23T03:45:21.273Z,19.88
2018-07-23T03:46:35.954Z,19.88
2018-07-23T03:47:50.132Z,19.88
2018-07-23T03:49:04.061Z,19.88
2018-07-23T03:50:18.365Z,19.89
2018-07-23T03:51:33.047Z,19.92
2018-07-23T03:52:47.981Z,19.95
2018-07-23T03:54:02.406Z,19.96
2018-07-23T03:55:16.746Z,19.98
2018-07-23T03:56:31.440Z,19.99
2018-07-23T03:57:45.624Z,20
2018-07-23T03:58:59.830Z,20.03
2018-07-23T04:00:14.534Z,20.04
2018-07-23T04:01:29.217Z,20.05
2018-07-23T04:02:43.687Z,20.07
2018-07-23T04:03:58.623Z,20.08
2018-07-23T04:05:13.069Z,20.11
2018-07-23T04:06:27.465Z,20.13
2018-07-23T04:07:41.883Z,20.15
2018-07-23T04:08:56.043Z,20.2
2018-07-23T04:12:26.497Z,20.49
2018-07-23T04:13:40.934Z,20.67
2018-07-23T04:14:55.572Z,20.85
2018-07-23T04:16:10.229Z,21.05
2018-07-23T04:17:24.473Z,21.24
2018-07-23T04:18:39.197Z,21.45
2018-07-23T04:19:53.635Z,21.64
2018-07-23T04:21:08.306Z,21.84
2018-07-23T04:22:22.759Z,22.06
2018-07-23T04:23:37.203Z,22.29
2018-07-23T04:24:51.156Z,22.5
2018-07-23T04:26:05.108Z,22.71
2018-07-23T04:27:19.388Z,22.89
2018-07-23T04:28:33.325Z,23.08
2018-07-23T04:29:48.004Z,23.28
2018-07-23T04:31:02.201Z,23.46
2018-07-23T04:32:16.392Z,23.61
2018-07-23T04:33:30.466Z,23.71
2018-07-23T04:34:45.130Z,23.84
2018-07-23T04:35:59.529Z,23.96
2018-07-23T04:37:14.662Z,23.94
2018-07-23T04:38:29.183Z,23.79
2018-07-23T04:39:43.875Z,23.77
2018-07-23T04:40:58.309Z,24.07
2018-07-23T04:42:13.295Z,24.37
2018-07-23T04:43:28.246Z,24.67
2018-07-23T04:44:42.650Z,25
2018-07-23T04:45:57.582Z,25.3
2018-07-23T04:47:11.740Z,25.6
2018-07-23T04:48:26.161Z,25.9
2018-07-23T04:49:40.124Z,26.19
2018-07-23T04:50:54.288Z,26.47
2018-07-23T04:52:08.441Z,26.74
2018-07-23T04:53:22.858Z,26.98
2018-07-23T04:54:37.317Z,27.23
2018-07-23T04:55:52.008Z,27.47
2018-07-23T04:57:06.870Z,27.68
2018-07-23T04:58:21.846Z,27.88
2018-07-23T04:59:36.272Z,28.08
2018-07-23T05:00:51.215Z,28.29
2018-07-23T05:02:05.910Z,28.42
2018-07-23T05:03:19.590Z,28.02
2018-07-23T05:04:33.024Z,27.62
2018-07-23T05:05:47.461Z,27.37
2018-07-23T05:07:01.359Z,27.23
2018-07-23T05:08:15.550Z,27.03
2018-07-23T05:09:30.036Z,26.76
2018-07-23T05:10:44.756Z,26.54
2018-07-23T05:11:59.152Z,26.33
2018-07-23T05:13:13.101Z,26.28
2018-07-23T05:14:28.085Z,26.12
2018-07-23T05:15:41.989Z,25.98
2018-07-23T05:16:56.727Z,26.13
2018-07-23T05:18:11.309Z,26.6
2018-07-23T05:21:38.983Z,27.98
2018-07-23T05:22:53.717Z,28.35
2018-07-23T05:24:07.485Z,28.59
2018-07-23T05:25:21.875Z,28.64
2018-07-23T05:26:36.362Z,28.8
2018-07-23T05:27:50.773Z,29.1
2018-07-23T05:29:04.939Z,28.99
2018-07-23T05:30:20.031Z,28.51
2018-07-23T05:31:34.255Z,28.13
2018-07-23T05:32:48.769Z,27.84
2018-07-23T05:34:03.739Z,27.59
2018-07-23T05:35:17.939Z,27.37
2018-07-23T05:36:31.864Z,27.15
2018-07-23T05:37:46.264Z,26.97
2018-07-23T05:39:00.710Z,26.8
2018-07-23T05:40:14.901Z,26.66
2018-07-23T05:41:29.710Z,26.53
2018-07-23T05:42:43.414Z,26.4
2018-07-23T05:43:58.107Z,26.28
2018-07-23T05:45:12.547Z,26.18
2018-07-23T05:46:26.869Z,26.08
2018-07-23T05:47:41.040Z,25.97
2018-07-23T05:48:55.726Z,25.93
2018-07-23T05:50:10.391Z,25.88
2018-07-23T05:51:24.336Z,25.88
2018-07-23T05:52:38.853Z,25.87
2018-07-23T05:53:53.548Z,25.83
2018-07-23T05:55:07.212Z,25.78
2018-07-23T05:56:21.643Z,25.72
2018-07-23T05:57:36.256Z,25.67
2018-07-23T05:58:51.166Z,25.63
2018-07-23T06:00:06.057Z,25.6
2018-07-23T06:01:20.489Z,25.56
2018-07-23T06:02:35.164Z,25.53
2018-07-23T06:03:49.594Z,25.5
2018-07-23T06:05:04.057Z,25.47
2018-07-23T06:06:18.007Z,25.46
2018-07-23T06:07:32.650Z,25.41
2018-07-23T06:08:47.532Z,25.36
2018-07-23T06:10:01.983Z,25.29
2018-07-23T06:11:16.178Z,25.22
2018-07-23T06:12:30.576Z,25.19
2018-07-23T06:13:45.141Z,25.13
2018-07-23T06:14:59.620Z,25.09
2018-07-23T06:16:14.563Z,25.06
2018-07-23T06:17:28.999Z,25.07
2018-07-23T06:18:43.281Z,25.1
2018-07-23T06:20:03.975Z,25.17
2018-07-23T06:21:18.423Z,25.25
2018-07-23T06:22:32.762Z,25.35
2018-07-23T06:23:46.942Z,25.45
2018-07-23T06:25:01.842Z,25.55
2018-07-23T06:26:16.039Z,25.67
2018-07-23T06:27:30.198Z,25.79
2018-07-23T06:28:44.099Z,25.91
2018-07-23T06:29:58.370Z,26.01
2018-07-23T06:31:13.796Z,26.13
2018-07-23T06:32:28.262Z,26.22
2018-07-23T06:33:42.995Z,26.32
2018-07-23T06:34:57.287Z,26.44
2018-07-23T06:36:11.998Z,26.55
2018-07-23T06:37:26.697Z,26.66
2018-07-23T06:38:41.622Z,26.79
2018-07-23T06:39:56.101Z,26.92
2018-07-23T06:41:10.807Z,27.04
2018-07-23T06:42:25.527Z,27.09
2018-07-23T06:43:39.820Z,27.07
2018-07-23T06:44:54.262Z,27.04
2018-07-23T06:46:08.717Z,27.07
2018-07-23T06:47:23.412Z,27.14
2018-07-23T06:48:37.847Z,27.19
2018-07-23T06:54:00.885Z,27.13
2018-07-23T06:55:15.214Z,27.12
2018-07-23T06:56:29.939Z,27.12
2018-07-23T06:57:44.150Z,27.12
2018-07-23T06:58:58.572Z,27.1
2018-07-23T07:00:12.771Z,27.07
2018-07-23T07:01:26.988Z,27.03
2018-07-23T07:02:41.654Z,26.99
2018-07-23T07:03:55.861Z,26.94
2018-07-23T07:05:10.221Z,26.9
2018-07-23T07:06:25.083Z,26.86
2018-07-23T07:07:40.212Z,26.82
2018-07-23T07:08:54.398Z,26.83
2018-07-23T07:10:09.003Z,26.84
2018-07-23T07:11:23.764Z,26.86
2018-07-23T07:12:38.765Z,26.85
2018-07-23T07:13:53.213Z,26.87
2018-07-23T07:15:07.437Z,26.93
2018-07-23T07:16:21.895Z,27.01
2018-07-23T07:17:36.326Z,27.04
2018-07-23T07:18:50.757Z,27.04
2018-07-23T07:20:05.202Z,27
2018-07-23T07:21:19.669Z,27.01
2018-07-23T07:22:33.647Z,27.01
2018-07-23T07:23:48.071Z,27.03
2018-07-23T07:25:02.437Z,27.04
2018-07-23T07:26:16.368Z,27.1
2018-07-23T07:27:31.076Z,27.15
2018-07-23T07:28:45.499Z,27.23
2018-07-23T07:30:00.647Z,27.29
2018-07-23T07:31:15.058Z,27.35
2018-07-23T07:32:30.235Z,27.39
2018-07-23T07:33:44.928Z,27.42
2018-07-23T07:34:59.410Z,27.42
2018-07-23T07:36:13.991Z,27.37
2018-07-23T07:37:28.231Z,27.33
2018-07-23T07:38:43.140Z,27.27
2018-07-23T07:39:57.352Z,27.21
2018-07-23T07:41:11.845Z,27.19
2018-07-23T07:42:25.767Z,27.2
2018-07-23T07:43:39.696Z,27.25
2018-07-23T07:44:54.150Z,27.29
2018-07-23T07:46:08.957Z,27.36
2018-07-23T07:47:23.173Z,27.46
2018-07-23T07:48:37.626Z,27.55
2018-07-23T07:49:52.727Z,27.63
2018-07-23T07:51:07.474Z,27.7
2018-07-23T07:52:21.170Z,27.72
2018-07-23T07:53:35.156Z,27.72
2018-07-23T07:54:49.848Z,27.7
2018-07-23T07:56:03.890Z,27.69
2018-07-23T07:57:18.342Z,27.67
2018-07-23T07:58:33.056Z,27.66
2018-07-23T07:59:47.232Z,27.64
2018-07-23T08:01:01.379Z,27.63
2018-07-23T08:02:16.579Z,27.59
2018-07-23T08:03:31.241Z,27.58
2018-07-23T08:04:45.687Z,27.6
2018-07-23T08:06:00.348Z,27.59
2018-07-23T08:07:14.786Z,27.64
2018-07-23T08:08:28.929Z,27.67
2018-07-23T08:09:43.155Z,27.71
2018-07-23T08:10:57.835Z,27.78
2018-07-23T08:12:12.611Z,27.89
2018-07-23T08:13:27.043Z,27.98
2018-07-23T08:14:41.734Z,28.09
2018-07-23T08:15:56.493Z,28.21
2018-07-23T08:17:10.996Z,28.29
2018-07-23T08:18:25.433Z,28.38
2018-07-23T08:19:39.594Z,28.46
2018-07-23T08:20:54.025Z,28.55
2018-07-23T08:22:08.915Z,28.6
2018-07-23T08:23:23.127Z,28.63
2018-07-23T08:24:37.845Z,28.66
2018-07-23T08:25:52.304Z,28.68
2018-07-23T08:27:06.804Z,28.7
2018-07-23T08:28:21.519Z,28.74
2018-07-23T08:29:36.295Z,28.78
2018-07-23T08:30:51.027Z,28.82
2018-07-23T08:32:06.057Z,28.89
2018-07-23T08:33:20.897Z,28.97
2018-07-23T08:34:35.357Z,29.05
2018-07-23T08:35:49.334Z,29.13
2018-07-23T08:37:04.552Z,29.22
2018-07-23T08:38:19.240Z,29.26
2018-07-23T08:39:33.560Z,29.27
2018-07-23T08:40:48.126Z,29.28
2018-07-23T08:42:02.384Z,29.32
2018-07-23T08:43:17.256Z,29.34
2018-07-23T08:44:31.207Z,29.38
2018-07-23T08:45:45.895Z,29.4
2018-07-23T08:47:00.843Z,29.36
2018-07-23T08:48:15.340Z,29.31
2018-07-23T08:49:30.086Z,29.27
2018-07-23T08:50:45.226Z,29.26
2018-07-23T08:51:59.409Z,29.26
2018-07-23T08:53:13.847Z,29.27
2018-07-23T08:54:28.029Z,29.29
2018-07-23T08:55:42.706Z,29.31
2018-07-23T08:56:57.396Z,29.34
2018-07-23T08:58:12.148Z,29.39
2018-07-23T08:59:26.360Z,29.43
2018-07-23T09:00:41.196Z,29.49
2018-07-23T09:01:56.107Z,29.51
2018-07-23T09:03:10.861Z,29.51
2018-07-23T09:04:25.023Z,29.5
2018-07-23T09:05:39.225Z,29.49
2018-07-23T09:06:53.926Z,29.49
2018-07-23T09:08:08.172Z,29.52
2018-07-23T09:09:22.703Z,29.56
2018-07-23T09:10:37.413Z,29.59
2018-07-23T09:11:51.825Z,29.62
2018-07-23T09:13:06.048Z,29.65
2018-07-23T09:14:20.830Z,29.68
2018-07-23T09:15:35.532Z,29.74
2018-07-23T09:16:49.705Z,29.79
2018-07-23T09:18:04.175Z,29.82
2018-07-23T09:19:18.949Z,29.83
2018-07-23T09:20:33.671Z,29.81
2018-07-23T09:21:47.909Z,29.77
2018-07-23T09:23:02.386Z,29.72
2018-07-23T09:24:16.652Z,29.69
2018-07-23T09:25:30.856Z,29.67
2018-07-23T09:26:45.328Z,29.68
2018-07-23T09:27:59.505Z,29.72
2018-07-23T09:29:13.768Z,29.76
2018-07-23T09:30:28.711Z,29.79
2018-07-23T09:31:43.160Z,29.77
2018-07-23T09:32:57.620Z,29.77
2018-07-23T09:34:12.161Z,29.78
2018-07-23T09:35:26.848Z,29.8
2018-07-23T09:36:40.790Z,29.86
2018-07-23T09:37:55.000Z,29.91
2018-07-23T09:39:09.255Z,29.96
2018-07-23T09:40:23.506Z,30
2018-07-23T09:41:38.185Z,30.01
2018-07-23T09:42:51.637Z,30
2018-07-23T09:44:06.644Z,29.97
2018-07-23T09:45:21.121Z,29.93
2018-07-23T09:46:35.942Z,29.9
2018-07-23T09:47:49.921Z,29.9
2018-07-23T09:49:04.682Z,29.91
2018-07-23T09:50:19.124Z,29.91
2018-07-23T09:51:33.581Z,29.96
2018-07-23T09:52:47.820Z,30.02
2018-07-23T09:54:01.966Z,30.06
2018-07-23T09:55:16.285Z,30.08
2018-07-23T09:56:30.495Z,30.12
2018-07-23T09:57:44.424Z,30.17
2018-07-23T09:58:58.604Z,30.24
2018-07-23T10:00:13.168Z,30.29
2018-07-23T10:01:27.197Z,30.29
2018-07-23T10:02:42.152Z,30.3
2018-07-23T10:03:57.186Z,30.37
2018-07-23T10:05:12.314Z,30.44
2018-07-23T10:06:26.782Z,30.54
2018-07-23T10:07:41.030Z,30.59
2018-07-23T10:08:55.211Z,30.6
2018-07-23T10:10:09.473Z,30.56
2018-07-23T10:11:23.905Z,30.56
2018-07-23T10:12:38.342Z,30.55
2018-07-23T10:13:53.065Z,30.57
2018-07-23T10:15:07.381Z,30.62
2018-07-23T10:16:21.639Z,30.66
2018-07-23T10:17:35.843Z,30.68
2018-07-23T10:18:50.093Z,30.67
2018-07-23T10:20:05.135Z,30.71
2018-07-23T10:21:19.374Z,30.75
2018-07-23T10:22:33.360Z,30.76
2018-07-23T10:23:48.225Z,30.79
2018-07-23T10:25:02.451Z,30.82
2018-07-23T10:26:17.465Z,30.85
2018-07-23T10:27:32.142Z,30.88
2018-07-23T10:28:47.400Z,30.93
2018-07-23T10:30:02.133Z,31
2018-07-23T10:31:17.049Z,31.01
2018-07-23T10:32:31.209Z,31.05
2018-07-23T10:33:45.903Z,31.1
2018-07-23T10:35:00.397Z,31.13
2018-07-23T10:36:14.584Z,31.19
2018-07-23T10:37:29.564Z,31.25
2018-07-23T10:38:43.976Z,31.32
2018-07-23T10:39:58.149Z,31.38
2018-07-23T10:41:12.748Z,31.42
2018-07-23T10:42:27.373Z,31.48
2018-07-23T10:43:41.823Z,31.53
2018-07-23T10:44:55.797Z,31.61
2018-07-23T10:46:10.341Z,31.66
2018-07-23T10:47:25.024Z,31.72
2018-07-23T10:48:39.209Z,31.74
2018-07-23T10:49:53.412Z,31.76
2018-07-23T10:51:07.276Z,31.78
2018-07-23T10:52:21.491Z,31.78
2018-07-23T10:53:35.451Z,31.76
2018-07-23T10:54:50.212Z,31.75
2018-07-23T10:56:04.483Z,31.74
2018-07-23T10:57:19.485Z,31.74
2018-07-23T10:58:33.985Z,31.78
2018-07-23T10:59:48.211Z,31.84
2018-07-23T11:01:02.665Z,31.91
2018-07-23T11:02:17.566Z,31.99
2018-07-23T11:03:31.795Z,32.09
2018-07-23T11:04:46.243Z,32.21
2018-07-23T11:06:00.459Z,32.34
2018-07-23T11:07:14.653Z,32.44
2018-07-23T11:08:29.111Z,32.51
2018-07-23T11:09:43.072Z,32.56
2018-07-23T11:10:56.531Z,32.58
2018-07-23T11:12:11.262Z,32.59
2018-07-23T11:13:25.976Z,32.58
2018-07-23T11:14:40.435Z,32.62
2018-07-23T11:15:54.651Z,32.66
2018-07-23T11:17:09.112Z,32.73
2018-07-23T11:18:23.788Z,32.75
2018-07-23T11:19:38.488Z,32.74
2018-07-23T11:20:52.965Z,32.79
2018-07-23T11:22:07.784Z,32.84
2018-07-23T11:23:22.125Z,32.92
2018-07-23T11:24:36.639Z,32.99
2018-07-23T11:25:50.419Z,33.05
2018-07-23T11:27:04.440Z,33.11
2018-07-23T11:28:18.736Z,33.17
2018-07-23T11:29:33.363Z,33.25
2018-07-23T11:30:47.982Z,33.31
2018-07-23T11:32:02.017Z,33.33
2018-07-23T11:33:16.899Z,33.33
2018-07-23T11:34:44.105Z,33.32
2018-07-23T11:35:58.310Z,33.32
2018-07-23T11:37:12.966Z,33.36
2018-07-23T11:38:27.897Z,33.35
2018-07-23T11:39:42.353Z,33.33
2018-07-23T11:40:56.558Z,33.3
2018-07-23T11:42:11.058Z,33.28
2018-07-23T11:43:25.603Z,33.22
2018-07-23T11:44:39.546Z,33.19
2018-07-23T11:45:54.261Z,33.16
2018-07-23T11:47:08.849Z,33.14
2018-07-23T11:48:23.630Z,33.11
2018-07-23T11:49:37.815Z,33.09
2018-07-23T11:50:52.598Z,32.97
2018-07-23T11:52:14.354Z,32.86
2018-07-23T11:53:25.255Z,32.8
2018-07-23T11:54:40.076Z,32.73
2018-07-23T11:55:54.518Z,32.72
2018-07-23T11:57:09.120Z,32.71
2018-07-23T11:58:23.569Z,32.71
2018-07-23T11:59:37.763Z,32.73
2018-07-23T12:00:52.450Z,32.77
2018-07-23T12:02:07.184Z,32.8
2018-07-23T12:03:22.405Z,32.81
2018-07-23T12:04:37.013Z,32.85
2018-07-23T12:05:51.499Z,32.91
2018-07-23T12:07:05.671Z,32.99
2018-07-23T12:08:20.000Z,33.06
2018-07-23T12:09:34.658Z,33.09
2018-07-23T12:10:49.809Z,33.07
2018-07-23T12:12:04.270Z,33.03
2018-07-23T12:13:18.889Z,32.98
2018-07-23T12:14:33.367Z,32.95
2018-07-23T12:15:47.797Z,32.97
2018-07-23T12:17:02.277Z,32.99
2018-07-23T12:18:16.908Z,33.04
2018-07-23T12:19:31.625Z,33.09
2018-07-23T12:20:45.865Z,33.11
2018-07-23T12:22:00.586Z,33.09
2018-07-23T12:23:15.046Z,33.03
2018-07-23T12:24:29.215Z,32.96
2018-07-23T12:25:43.473Z,32.84
2018-07-23T12:26:57.193Z,32.75
2018-07-23T12:28:11.654Z,32.71
2018-07-23T12:29:26.529Z,32.7
2018-07-23T12:30:40.975Z,32.69
2018-07-23T12:31:55.683Z,32.68
2018-07-23T12:33:10.399Z,32.67
2018-07-23T12:34:24.756Z,32.66
2018-07-23T12:35:39.256Z,32.64
2018-07-23T12:36:54.002Z,32.63
2018-07-23T12:38:08.736Z,32.57
2018-07-23T12:39:23.441Z,32.54
2018-07-23T12:40:38.988Z,32.5
2018-07-23T12:41:53.460Z,32.49
2018-07-23T12:43:08.206Z,32.46
2018-07-23T12:44:23.224Z,32.41
2018-07-23T12:45:37.211Z,32.37
2018-07-23T12:46:51.672Z,32.37
2018-07-23T12:48:05.651Z,32.34
2018-07-23T12:49:20.402Z,32.33
2018-07-23T12:50:34.855Z,32.29
2018-07-23T12:51:49.072Z,32.26
2018-07-23T12:53:03.788Z,32.2
2018-07-23T12:54:18.506Z,32.14
2018-07-23T12:55:32.675Z,32.11
2018-07-23T12:56:47.622Z,32.06
2018-07-23T12:58:02.351Z,32.04
2018-07-23T12:59:17.360Z,32.04
2018-07-23T13:00:32.274Z,32.04
2018-07-23T13:01:46.957Z,32.03
2018-07-23T13:03:01.688Z,32.01
2018-07-23T13:04:15.850Z,32.01
2018-07-23T13:05:30.863Z,32.01
2018-07-23T13:06:45.554Z,31.97
2018-07-23T13:08:00.331Z,31.93
2018-07-23T13:09:14.929Z,31.93
2018-07-23T13:10:29.238Z,31.93
2018-07-23T13:11:43.183Z,31.9
2018-07-23T13:12:57.114Z,31.84
2018-07-23T13:14:11.309Z,31.78
2018-07-23T13:15:25.297Z,31.71
2018-07-23T13:16:40.321Z,31.67
2018-07-23T13:17:54.861Z,31.68
2018-07-23T13:19:09.615Z,31.71
2018-07-23T13:20:24.671Z,31.75
2018-07-23T13:21:39.165Z,31.82
2018-07-23T13:22:53.352Z,31.89
2018-07-23T13:24:08.032Z,31.97
2018-07-23T13:25:22.262Z,32.05
2018-07-23T13:26:37.288Z,32.12
2018-07-23T13:27:52.024Z,32.22
2018-07-23T13:29:06.446Z,32.31
2018-07-23T13:30:21.391Z,32.39
2018-07-23T13:31:35.754Z,32.49
2018-07-23T13:32:49.984Z,32.55
2018-07-23T13:34:04.213Z,32.58
2018-07-23T13:35:19.204Z,32.6
2018-07-23T13:36:33.685Z,32.63
2018-07-23T13:37:48.399Z,32.68
2018-07-23T13:39:03.183Z,32.67
2018-07-23T13:40:17.913Z,32.63
2018-07-23T13:41:32.439Z,32.62
2018-07-23T13:42:47.176Z,32.65
2018-07-23T13:44:01.871Z,32.68
2018-07-23T13:45:16.612Z,32.73
2018-07-23T13:46:31.570Z,32.75
2018-07-23T13:47:45.592Z,32.77
2018-07-23T13:49:00.555Z,32.79
2018-07-23T13:50:15.286Z,32.74
2018-07-23T13:51:30.149Z,32.7
2018-07-23T13:52:44.350Z,32.65
2018-07-23T13:53:58.822Z,32.61
2018-07-23T13:55:13.524Z,32.58
2018-07-23T13:56:28.570Z,32.55
2018-07-23T13:57:42.769Z,32.53
2018-07-23T13:58:57.456Z,32.53
2018-07-23T14:00:12.214Z,32.5
2018-07-23T14:01:27.076Z,32.48
2018-07-23T14:02:41.782Z,32.46
2018-07-23T14:03:56.266Z,32.46
2018-07-23T14:05:11.014Z,32.48
2018-07-23T14:06:25.486Z,32.49
2018-07-23T14:07:40.384Z,32.52
2018-07-23T14:08:54.818Z,32.5
2018-07-23T14:10:09.082Z,32.45
2018-07-23T14:11:23.655Z,32.42
2018-07-23T14:12:38.397Z,32.38
2018-07-23T14:13:53.131Z,32.34
2018-07-23T14:15:07.747Z,32.26
2018-07-23T14:16:22.680Z,32.18
2018-07-23T14:17:37.858Z,32.07
2018-07-23T14:18:52.607Z,31.98
2018-07-23T14:20:06.560Z,31.93
2018-07-23T14:21:21.265Z,31.89
2018-07-23T14:22:35.729Z,31.86
2018-07-23T14:23:49.951Z,31.85
2018-07-23T14:25:04.435Z,31.88
2018-07-23T14:26:19.209Z,31.92
2018-07-23T14:27:33.550Z,31.92
2018-07-23T14:28:48.390Z,31.9
2018-07-23T14:30:03.142Z,31.87
2018-07-23T14:31:17.817Z,31.84
2018-07-23T14:32:32.550Z,31.81
2018-07-23T14:33:46.813Z,31.75
2018-07-23T14:35:01.591Z,31.7
2018-07-23T14:36:16.114Z,31.66
2018-07-23T14:37:30.620Z,31.65
2018-07-23T14:38:44.613Z,31.67
2018-07-23T14:39:59.083Z,31.71
2018-07-23T14:41:13.898Z,31.79
2018-07-23T14:42:28.396Z,31.85
2018-07-23T14:43:42.147Z,31.91
2018-07-23T14:44:56.516Z,31.96
2018-07-23T14:46:10.757Z,32
2018-07-23T14:47:24.468Z,32.05
2018-07-23T14:48:39.083Z,32.14
2018-07-23T14:49:53.670Z,32.22
2018-07-23T14:51:07.852Z,32.32
2018-07-23T14:52:22.606Z,32.42
2018-07-23T14:53:37.559Z,32.52
2018-07-23T14:54:52.004Z,32.6
2018-07-23T14:56:06.220Z,32.63
2018-07-23T14:57:20.424Z,32.69
2018-07-23T14:58:34.876Z,32.74
2018-07-23T14:59:49.902Z,32.82
2018-07-23T15:01:04.132Z,32.88
2018-07-23T15:02:18.528Z,32.92
2018-07-23T15:03:33.530Z,32.98
2018-07-23T15:04:48.697Z,33.02
2018-07-23T15:06:03.505Z,33.05
2018-07-23T15:07:18.269Z,33.09
2018-07-23T15:08:33.002Z,33.12
2018-07-23T15:09:47.674Z,33.14
2018-07-23T15:11:01.964Z,33.12
2018-07-23T15:12:16.960Z,33.12
2018-07-23T15:13:31.788Z,33.12
2018-07-23T15:14:46.594Z,33.12
2018-07-23T15:16:00.350Z,33.12
2018-07-23T15:17:15.220Z,33.15
2018-07-23T15:18:29.728Z,33.18
2018-07-23T15:19:44.770Z,33.24
2018-07-23T15:20:59.464Z,33.24
2018-07-23T15:22:13.489Z,33.25
2018-07-23T15:23:28.286Z,33.26
2018-07-23T15:24:42.943Z,33.29
2018-07-23T15:25:57.456Z,33.3
2018-07-23T15:27:11.975Z,33.31
2018-07-23T15:28:26.318Z,33.33
2018-07-23T15:29:41.204Z,33.35
2018-07-23T15:30:55.686Z,33.36
2018-07-23T15:32:10.164Z,33.37
2018-07-23T15:33:24.121Z,33.39
2018-07-23T15:34:38.391Z,33.38
2018-07-23T15:35:53.456Z,33.37
2018-07-23T15:37:08.519Z,33.4
2018-07-23T15:38:23.282Z,33.42
2018-07-23T15:39:37.755Z,33.45
2018-07-23T15:40:52.483Z,33.46
2018-07-23T15:42:07.217Z,33.49
2018-07-23T15:43:22.211Z,33.46
2018-07-23T15:44:37.582Z,33.41
2018-07-23T15:45:53.800Z,33.35
2018-07-23T15:47:09.008Z,33.32
2018-07-23T15:48:23.737Z,33.29
2018-07-23T15:49:38.027Z,33.29
2018-07-23T15:50:52.517Z,33.29
2018-07-23T15:52:07.027Z,33.27
2018-07-23T15:53:21.761Z,33.24
2018-07-23T15:54:36.256Z,33.24
2018-07-23T15:55:51.167Z,33.26
2018-07-23T15:57:05.936Z,33.26
2018-07-23T15:58:20.945Z,33.25
2018-07-23T15:59:35.958Z,33.25
2018-07-23T16:00:50.380Z,33.26
2018-07-23T16:02:04.352Z,33.27
2018-07-23T16:03:18.854Z,33.28
2018-07-23T16:04:33.615Z,33.27
2018-07-23T16:05:49.588Z,33.27
2018-07-23T16:07:03.607Z,33.26
2018-07-23T16:08:17.859Z,33.24
2018-07-23T16:09:32.380Z,33.25
2018-07-23T16:10:47.222Z,33.25
2018-07-23T16:12:02.351Z,33.28